createdAt,value
2018-03-19T00:00:53.884Z,59.45
2018-03-19T00:01:54.031Z,59.45
2018-03-19T00:02:54.172Z,59.54
2018-03-19T00:03:54.317Z,59.45
2018-03-19T00:04:54.470Z,59.45
2018-03-19T00:05:54.599Z,59.26
2018-03-19T00:06:54.748Z,59.35
2018-03-19T00:07:54.888Z,59.54
2018-03-19T00:08:55.027Z,59.45
2018-03-19T00:09:55.169Z,59.54
2018-03-19T00:10:55.323Z,59.54
2018-03-19T00:11:55.453Z,59.45
2018-03-19T00:12:55.599Z,59.83
2018-03-19T00:13:55.742Z,59.73
2018-03-19T00:14:55.877Z,59.64
2018-03-19T00:15:56.020Z,59.26
2018-03-19T00:16:56.170Z,59.35
2018-03-19T00:17:56.308Z,59.35
2018-03-19T00:18:56.454Z,60.11
2018-03-19T00:19:56.605Z,59.83
2018-03-19T00:20:56.729Z,59.45
2018-03-19T00:21:56.872Z,60.49
2018-03-19T00:22:57.019Z,60.02
2018-03-19T00:23:57.158Z,59.83
2018-03-19T00:24:57.300Z,60.49
2018-03-19T00:25:57.702Z,60.49
2018-03-19T00:26:57.589Z,60.02
2018-03-19T00:27:57.735Z,60.49
2018-03-19T00:28:57.881Z,60.49
2018-03-19T00:29:58.020Z,60.36
2018-03-19T00:30:58.164Z,60.30
2018-03-19T00:31:58.308Z,60.49
2018-03-19T00:32:58.448Z,60.77
2018-03-19T00:33:58.589Z,60.39
2018-03-19T00:34:58.737Z,60.77
2018-03-19T00:35:58.892Z,60.46
2018-03-19T00:36:59.022Z,60.17
2018-03-19T00:37:59.167Z,60.36
2018-03-19T00:38:59.318Z,60.49
2018-03-19T00:39:59.455Z,60.17
2018-03-19T00:40:59.846Z,60.36
2018-03-19T00:41:59.753Z,60.36
2018-03-19T00:42:59.884Z,60.36
2018-03-19T00:44:00.040Z,60.46
2018-03-19T00:45:00.172Z,60.64
2018-03-19T00:46:00.313Z,60.55
2018-03-19T00:47:00.480Z,60.83
2018-03-19T00:48:00.609Z,60.74
2018-03-19T00:49:00.738Z,60.83
2018-03-19T00:50:00.882Z,60.74
2018-03-19T00:51:01.025Z,60.83
2018-03-19T00:52:01.168Z,60.64
2018-03-19T00:53:01.316Z,60.83
2018-03-19T00:54:01.453Z,60.93
2018-03-19T00:55:01.594Z,61.11
2018-03-19T00:56:01.744Z,61.02
2018-03-19T00:57:01.883Z,60.93
2018-03-19T00:58:02.025Z,60.74
2018-03-19T00:59:02.180Z,60.74
2018-03-19T01:00:02.315Z,60.93
2018-03-19T01:01:02.453Z,61.02
2018-03-19T01:02:02.611Z,60.83
2018-03-19T01:03:02.745Z,60.74
2018-03-19T01:04:02.890Z,61.49
2018-03-19T01:05:03.031Z,60.83
2018-03-19T01:06:03.179Z,61.30
2018-03-19T01:07:03.316Z,60.74
2018-03-19T01:08:03.465Z,61.02
2018-03-19T01:09:03.604Z,60.83
2018-03-19T01:10:03.748Z,60.93
2018-03-19T01:12:04.028Z,61.58
2018-03-19T01:13:04.169Z,61.02
2018-03-19T01:14:04.665Z,61.21
2018-03-19T01:15:04.454Z,61.49
2018-03-19T01:16:04.598Z,61.21
2018-03-19T01:17:04.744Z,61.21
2018-03-19T01:18:04.887Z,61.21
2018-03-19T01:19:05.032Z,61.11
2018-03-19T01:20:05.171Z,61.11
2018-03-19T01:21:05.315Z,61.21
2018-03-19T01:22:05.460Z,61.21
2018-03-19T01:23:05.600Z,61.11
2018-03-19T01:24:05.745Z,60.93
2018-03-19T01:25:05.886Z,61.11
2018-03-19T01:26:06.040Z,61.21
2018-03-19T01:27:06.175Z,61.21
2018-03-19T01:28:06.325Z,61.11
2018-03-19T01:29:06.463Z,61.21
2018-03-19T01:30:06.600Z,61.02
2018-03-19T01:31:06.747Z,61.40
2018-03-19T01:32:06.896Z,61.49
2018-03-19T01:33:07.030Z,61.68
2018-03-19T01:34:07.176Z,61.68
2018-03-19T01:35:07.329Z,61.30
2018-03-19T01:36:07.461Z,61.49
2018-03-19T01:37:07.600Z,61.49
2018-03-19T01:38:07.753Z,61.58
2018-03-19T01:39:07.887Z,61.30
2018-03-19T01:40:08.029Z,61.58
2018-03-19T01:41:08.187Z,61.30
2018-03-19T01:42:08.325Z,61.49
2018-03-19T01:43:08.462Z,61.40
2018-03-19T01:44:08.607Z,62.15
2018-03-19T01:45:08.749Z,62.06
2018-03-19T01:46:08.890Z,61.96
2018-03-19T01:47:09.034Z,61.96
2018-03-19T01:48:09.177Z,61.77
2018-03-19T01:49:09.325Z,61.77
2018-03-19T01:50:09.494Z,61.49
2018-03-19T01:51:09.616Z,61.58
2018-03-19T01:52:09.752Z,61.96
2018-03-19T01:54:10.027Z,62.15
2018-03-19T01:55:10.170Z,61.58
2018-03-19T01:56:10.313Z,61.58
2018-03-19T01:57:10.456Z,61.96
2018-03-19T01:58:10.604Z,61.77
2018-03-19T01:59:10.743Z,62.43
2018-03-19T02:00:10.885Z,61.87
2018-03-19T02:01:11.039Z,62.06
2018-03-19T02:02:11.172Z,61.96
2018-03-19T02:03:11.317Z,61.87
2018-03-19T02:04:11.460Z,61.58
2018-03-19T02:05:11.627Z,62.15
2018-03-19T02:06:11.737Z,62.25
2018-03-19T02:07:11.883Z,61.87
2018-03-19T02:08:12.393Z,62.06
2018-03-19T02:09:12.167Z,62.34
2018-03-19T02:10:12.310Z,62.06
2018-03-19T02:11:12.459Z,61.87
2018-03-19T02:12:12.597Z,62.25
2018-03-19T02:13:12.741Z,62.34
2018-03-19T02:14:12.885Z,62.34
2018-03-19T02:15:13.023Z,62.25
2018-03-19T02:16:13.168Z,62.25
2018-03-19T02:17:13.311Z,62.43
2018-03-19T02:18:13.453Z,62.91
2018-03-19T02:19:13.600Z,62.72
2018-03-19T02:20:14.013Z,62.81
2018-03-19T02:21:13.881Z,62.34
2018-03-19T02:22:14.044Z,62.43
2018-03-19T02:23:14.183Z,62.43
2018-03-19T02:24:14.311Z,62.34
2018-03-19T02:25:14.461Z,62.34
2018-03-19T02:26:14.606Z,62.25
2018-03-19T02:27:14.746Z,62.15
2018-03-19T02:28:14.891Z,62.43
2018-03-19T02:29:15.026Z,62.34
2018-03-19T02:30:15.171Z,62.43
2018-03-19T02:31:15.315Z,62.34
2018-03-19T02:32:15.461Z,62.25
2018-03-19T02:33:15.603Z,62.43
2018-03-19T02:34:15.750Z,61.96
2018-03-19T02:35:15.895Z,62.15
2018-03-19T02:36:16.041Z,61.87
2018-03-19T02:37:16.180Z,61.87
2018-03-19T02:38:16.329Z,61.96
2018-03-19T02:39:16.465Z,61.96
2018-03-19T02:40:16.603Z,61.87
2018-03-19T02:41:16.759Z,62.43
2018-03-19T02:42:16.897Z,62.34
2018-03-19T02:43:17.033Z,62.06
2018-03-19T02:44:17.175Z,62.43
2018-03-19T02:45:17.319Z,62.43
2018-03-19T02:46:17.462Z,61.87
2018-03-19T02:47:17.654Z,61.58
2018-03-19T02:48:17.765Z,61.68
2018-03-19T02:49:17.915Z,62.53
2018-03-19T02:50:18.058Z,62.34
2018-03-19T02:51:18.199Z,62.34
2018-03-19T02:52:18.340Z,62.15
2018-03-19T02:53:18.479Z,61.68
2018-03-19T02:54:18.623Z,61.77
2018-03-19T02:55:18.766Z,61.87
2018-03-19T02:56:18.909Z,62.06
2018-03-19T02:57:19.061Z,61.77
2018-03-19T02:58:19.203Z,62.43
2018-03-19T02:59:19.343Z,62.34
2018-03-19T03:00:19.487Z,62.34
2018-03-19T03:01:19.631Z,62.34
2018-03-19T03:02:19.772Z,62.43
2018-03-19T03:03:19.914Z,62.25
2018-03-19T03:04:20.060Z,61.96
2018-03-19T03:06:20.342Z,62.53
2018-03-19T03:07:20.486Z,62.62
2018-03-19T03:08:20.633Z,62.34
2018-03-19T03:09:20.764Z,62.43
2018-03-19T03:10:20.908Z,62.34
2018-03-19T03:11:21.051Z,62.43
2018-03-19T03:12:21.192Z,62.81
2018-03-19T03:13:21.338Z,62.62
2018-03-19T03:14:21.485Z,62.72
2018-03-19T03:15:21.626Z,62.62
2018-03-19T03:16:21.766Z,62.43
2018-03-19T03:17:22.004Z,62.34
2018-03-19T03:18:22.052Z,62.53
2018-03-19T03:19:22.192Z,62.34
2018-03-19T03:20:22.339Z,62.62
2018-03-19T03:21:22.476Z,62.53
2018-03-19T03:22:22.620Z,62.43
2018-03-19T03:23:22.764Z,62.62
2018-03-19T03:24:22.911Z,62.72
2018-03-19T03:25:23.050Z,62.62
2018-03-19T03:26:23.203Z,63.19
2018-03-19T03:27:23.339Z,62.43
2018-03-19T03:28:23.481Z,62.43
2018-03-19T03:29:23.636Z,62.53
2018-03-19T03:30:23.760Z,62.62
2018-03-19T03:31:23.905Z,62.43
2018-03-19T03:33:24.183Z,62.43
2018-03-19T03:34:24.331Z,62.53
2018-03-19T03:35:24.471Z,63.00
2018-03-19T03:36:24.612Z,62.72
2018-03-19T03:37:24.755Z,62.43
2018-03-19T03:38:24.897Z,62.53
2018-03-19T03:39:25.044Z,62.43
2018-03-19T03:40:25.184Z,62.53
2018-03-19T03:41:25.331Z,62.62
2018-03-19T03:42:25.469Z,62.72
2018-03-19T03:43:25.616Z,62.53
2018-03-19T03:44:26.155Z,62.53
2018-03-19T03:45:25.906Z,62.91
2018-03-19T03:46:26.039Z,62.43
2018-03-19T03:47:26.187Z,62.53
2018-03-19T03:48:26.329Z,62.91
2018-03-19T03:49:26.471Z,63.10
2018-03-19T03:50:26.616Z,63.19
2018-03-19T03:51:26.761Z,63.29
2018-03-19T03:52:26.899Z,62.91
2018-03-19T03:53:27.046Z,63.19
2018-03-19T03:54:27.185Z,63.47
2018-03-19T03:55:27.333Z,62.81
2018-03-19T03:56:27.958Z,63.85
2018-03-19T03:57:27.620Z,63.66
2018-03-19T03:58:27.762Z,63.47
2018-03-19T03:59:27.905Z,63.76
2018-03-19T04:00:28.047Z,63.85
2018-03-19T04:01:28.194Z,64.04
2018-03-19T04:02:28.343Z,63.57
2018-03-19T04:03:28.481Z,63.85
2018-03-19T04:04:28.623Z,63.47
2018-03-19T04:05:28.765Z,63.85
2018-03-19T04:06:28.910Z,64.14
2018-03-19T04:07:29.056Z,63.66
2018-03-19T04:08:29.195Z,63.47
2018-03-19T04:09:29.335Z,63.95
2018-03-19T04:10:29.481Z,63.66
2018-03-19T04:11:29.645Z,64.32
2018-03-19T04:12:29.769Z,64.04
2018-03-19T04:13:29.902Z,63.85
2018-03-19T04:14:30.191Z,63.85
2018-03-19T04:15:30.191Z,63.95
2018-03-19T04:16:30.327Z,64.23
2018-03-19T04:17:30.850Z,64.32
2018-03-19T04:18:30.621Z,63.95
2018-03-19T04:19:30.764Z,63.76
2018-03-19T04:20:30.903Z,63.57
2018-03-19T04:21:31.046Z,63.66
2018-03-19T04:22:31.191Z,63.95
2018-03-19T04:23:31.331Z,64.61
2018-03-19T04:24:31.474Z,64.51
2018-03-19T04:25:31.617Z,64.70
2018-03-19T04:26:32.062Z,64.51
2018-03-19T04:27:31.900Z,63.95
2018-03-19T04:28:32.052Z,64.51
2018-03-19T04:29:32.197Z,64.79
2018-03-19T04:30:32.333Z,64.42
2018-03-19T04:31:32.474Z,65.08
2018-03-19T04:32:32.625Z,65.17
2018-03-19T04:33:32.758Z,65.55
2018-03-19T04:34:32.902Z,65.08
2018-03-19T04:35:33.046Z,65.45
2018-03-19T04:36:33.185Z,65.08
2018-03-19T04:37:33.328Z,65.17
2018-03-19T04:38:33.477Z,65.08
2018-03-19T04:39:33.614Z,64.70
2018-03-19T04:40:33.755Z,64.32
2018-03-19T04:41:33.912Z,64.51
2018-03-19T04:42:34.039Z,64.79
2018-03-19T04:43:34.186Z,64.51
2018-03-19T04:44:34.327Z,64.51
2018-03-19T04:45:34.466Z,64.67
2018-03-19T04:46:34.613Z,64.51
2018-03-19T04:47:34.754Z,64.61
2018-03-19T04:48:34.906Z,64.39
2018-03-19T04:49:35.038Z,64.70
2018-03-19T04:50:35.181Z,64.67
2018-03-19T04:51:35.327Z,65.33
2018-03-19T04:52:35.472Z,64.58
2018-03-19T04:53:35.615Z,64.29
2018-03-19T04:54:35.756Z,64.48
2018-03-19T04:55:35.898Z,64.70
2018-03-19T04:56:36.292Z,64.39
2018-03-19T04:57:36.185Z,64.58
2018-03-19T04:58:36.328Z,64.29
2018-03-19T04:59:36.471Z,64.48
2018-03-19T05:00:36.610Z,64.39
2018-03-19T05:01:36.760Z,64.48
2018-03-19T05:02:36.893Z,65.36
2018-03-19T05:03:37.036Z,64.67
2018-03-19T05:04:37.177Z,64.58
2018-03-19T05:05:37.321Z,64.48
2018-03-19T05:06:37.464Z,64.48
2018-03-19T05:07:37.609Z,64.48
2018-03-19T05:08:37.990Z,64.58
2018-03-19T05:09:37.891Z,64.39
2018-03-19T05:10:38.029Z,64.76
2018-03-19T05:11:38.178Z,64.48
2018-03-19T05:12:38.321Z,64.29
2018-03-19T05:13:38.460Z,64.76
2018-03-19T05:14:38.850Z,64.67
2018-03-19T05:15:38.744Z,64.29
2018-03-19T05:16:38.879Z,64.48
2018-03-19T05:17:39.061Z,64.48
2018-03-19T05:18:39.159Z,64.58
2018-03-19T05:19:39.303Z,64.39
2018-03-19T05:20:39.448Z,64.86
2018-03-19T05:21:39.590Z,64.67
2018-03-19T05:22:39.729Z,65.05
2018-03-19T05:23:40.115Z,65.14
2018-03-19T05:24:40.013Z,65.14
2018-03-19T05:25:40.159Z,65.23
2018-03-19T05:26:40.547Z,64.86
2018-03-19T05:27:40.438Z,65.23
2018-03-19T05:28:40.584Z,64.86
2018-03-19T05:29:40.727Z,65.23
2018-03-19T05:30:40.870Z,65.23
2018-03-19T05:31:41.010Z,65.23
2018-03-19T05:32:41.149Z,64.58
2018-03-19T05:33:41.292Z,64.39
2018-03-19T05:34:41.435Z,64.48
2018-03-19T05:35:41.577Z,64.39
2018-03-19T05:36:41.713Z,64.48
2018-03-19T05:37:41.852Z,64.58
2018-03-19T05:38:41.992Z,64.86
2018-03-19T05:39:42.139Z,64.67
2018-03-19T05:40:42.281Z,64.58
2018-03-19T05:41:42.425Z,64.95
2018-03-19T05:42:42.566Z,64.95
2018-03-19T05:43:42.710Z,64.67
2018-03-19T05:44:42.853Z,65.23
2018-03-19T05:45:42.996Z,65.05
2018-03-19T05:46:43.142Z,64.95
2018-03-19T05:47:43.283Z,65.33
2018-03-19T05:48:43.423Z,64.95
2018-03-19T05:49:43.567Z,64.76
2018-03-19T05:50:43.710Z,64.86
2018-03-19T05:51:43.849Z,64.95
2018-03-19T05:52:43.994Z,65.05
2018-03-19T05:53:44.135Z,65.14
2018-03-19T05:54:44.285Z,65.23
2018-03-19T05:55:44.420Z,64.48
2018-03-19T05:56:44.572Z,64.58
2018-03-19T05:57:44.709Z,64.32
2018-03-19T05:58:44.849Z,64.42
2018-03-19T05:59:44.995Z,64.51
2018-03-19T06:00:45.134Z,64.61
2018-03-19T06:01:45.276Z,64.04
2018-03-19T06:02:45.422Z,64.01
2018-03-19T06:03:45.565Z,64.14
2018-03-19T06:04:45.709Z,63.85
2018-03-19T06:05:45.852Z,63.95
2018-03-19T06:06:46.000Z,63.76
2018-03-19T06:07:46.137Z,64.04
2018-03-19T06:08:46.277Z,63.95
2018-03-19T06:09:46.419Z,63.10
2018-03-19T06:10:46.563Z,63.00
2018-03-19T06:11:46.706Z,63.10
2018-03-19T06:12:46.849Z,62.62
2018-03-19T06:13:47.000Z,63.10
2018-03-19T06:14:47.132Z,62.81
2018-03-19T06:15:47.276Z,62.81
2018-03-19T06:16:47.418Z,62.34
2018-03-19T06:17:47.559Z,62.72
2018-03-19T06:18:47.702Z,62.34
2018-03-19T06:19:47.844Z,62.62
2018-03-19T06:20:47.990Z,62.53
2018-03-19T06:21:48.151Z,62.34
2018-03-19T06:22:48.293Z,62.53
2018-03-19T06:23:48.447Z,62.43
2018-03-19T06:24:48.577Z,62.72
2018-03-19T06:25:48.730Z,62.34
2018-03-19T06:26:48.881Z,62.15
2018-03-19T06:27:49.012Z,61.87
2018-03-19T06:28:49.151Z,61.30
2018-03-19T06:29:49.314Z,61.21
2018-03-19T06:30:49.449Z,61.21
2018-03-19T06:31:49.593Z,61.11
2018-03-19T06:32:49.987Z,61.30
2018-03-19T06:33:49.889Z,60.74
2018-03-19T06:34:50.018Z,60.93
2018-03-19T06:35:50.421Z,61.49
2018-03-19T06:36:50.304Z,61.21
2018-03-19T06:37:50.456Z,61.49
2018-03-19T06:38:50.604Z,60.93
2018-03-19T06:39:50.748Z,60.83
2018-03-19T06:40:50.892Z,60.93
2018-03-19T06:41:51.035Z,60.64
2018-03-19T06:42:51.179Z,60.64
2018-03-19T06:43:51.325Z,60.17
2018-03-19T06:44:51.474Z,60.46
2018-03-19T06:45:51.613Z,60.17
2018-03-19T06:46:51.759Z,60.36
2018-03-19T06:47:52.159Z,59.80
2018-03-19T06:48:52.049Z,59.70
2018-03-19T06:49:52.194Z,59.80
2018-03-19T06:50:52.337Z,59.89
2018-03-19T06:51:52.476Z,60.27
2018-03-19T06:52:52.623Z,59.80
2018-03-19T06:53:52.767Z,59.70
2018-03-19T06:54:52.908Z,59.51
2018-03-19T06:55:53.054Z,59.61
2018-03-19T06:56:53.197Z,59.23
2018-03-19T06:57:53.336Z,59.23
2018-03-19T06:58:53.479Z,59.42
2018-03-19T06:59:53.624Z,59.51
2018-03-19T07:00:53.784Z,59.42
2018-03-19T07:01:53.911Z,58.95
2018-03-19T07:02:54.304Z,58.57
2018-03-19T07:03:54.211Z,58.57
2018-03-19T07:04:54.347Z,58.85
2018-03-19T07:05:54.491Z,59.04
2018-03-19T07:06:54.635Z,58.57
2018-03-19T07:07:54.777Z,58.47
2018-03-19T07:08:54.934Z,58.95
2018-03-19T07:09:55.067Z,58.66
2018-03-19T07:10:55.206Z,59.14
2018-03-19T07:11:55.349Z,58.66
2018-03-19T07:12:55.491Z,58.95
2018-03-19T07:13:55.640Z,58.66
2018-03-19T07:14:56.034Z,58.47
2018-03-19T07:15:55.924Z,58.60
2018-03-19T07:16:56.076Z,58.12
2018-03-19T07:17:56.273Z,57.91
2018-03-19T07:18:56.355Z,57.72
2018-03-19T07:19:56.500Z,58.00
2018-03-19T07:20:56.650Z,57.84
2018-03-19T07:21:56.788Z,57.46
2018-03-19T07:22:56.931Z,57.28
2018-03-19T07:23:57.074Z,57.18
2018-03-19T07:24:57.218Z,57.28
2018-03-19T07:25:57.362Z,56.99
2018-03-19T07:26:57.512Z,56.90
2018-03-19T07:27:57.704Z,56.43
2018-03-19T07:28:57.806Z,56.05
2018-03-19T07:29:57.946Z,56.24
2018-03-19T07:30:58.083Z,55.86
2018-03-19T07:31:58.226Z,56.15
2018-03-19T07:32:58.375Z,55.86
2018-03-19T07:33:58.516Z,55.39
2018-03-19T07:34:58.662Z,54.73
2018-03-19T07:35:58.803Z,54.82
2018-03-19T07:36:58.958Z,54.73
2018-03-19T07:37:59.096Z,54.44
2018-03-19T07:38:59.242Z,54.75
2018-03-19T07:39:59.386Z,54.10
2018-03-19T07:40:59.547Z,54.10
2018-03-19T07:41:59.681Z,53.91
2018-03-19T07:42:59.814Z,54.10
2018-03-19T07:43:59.960Z,53.63
2018-03-19T07:46:00.240Z,53.44
2018-03-19T07:47:00.393Z,53.53
2018-03-19T07:48:00.531Z,53.34
2018-03-19T07:49:00.684Z,53.34
2018-03-19T07:50:00.834Z,54.00
2018-03-19T07:51:00.974Z,53.72
2018-03-19T07:52:01.122Z,53.81
2018-03-19T07:53:01.273Z,53.34
2018-03-19T07:54:01.409Z,52.96
2018-03-19T07:55:01.657Z,53.06
2018-03-19T07:56:01.769Z,53.06
2018-03-19T07:57:01.915Z,52.30
2018-03-19T07:58:02.058Z,52.02
2018-03-19T07:59:02.215Z,52.02
2018-03-19T08:00:02.358Z,52.21
2018-03-19T08:01:02.495Z,52.30
2018-03-19T08:02:02.642Z,52.02
2018-03-19T08:03:02.787Z,51.26
2018-03-19T08:04:02.937Z,51.17
2018-03-19T08:05:03.084Z,51.07
2018-03-19T08:06:03.230Z,51.17
2018-03-19T08:07:03.373Z,50.79
2018-03-19T08:08:03.521Z,50.32
2018-03-19T08:09:03.670Z,50.23
2018-03-19T08:10:03.815Z,50.23
2018-03-19T08:11:03.977Z,50.32
2018-03-19T08:12:04.167Z,50.32
2018-03-19T08:13:04.255Z,50.70
2018-03-19T08:14:04.405Z,51.64
2018-03-19T08:15:04.556Z,51.17
2018-03-19T08:16:04.719Z,50.32
2018-03-19T08:17:04.853Z,50.25
2018-03-19T08:18:05.001Z,50.06
2018-03-19T08:19:05.145Z,49.68
2018-03-19T08:20:05.306Z,49.49
2018-03-19T08:21:05.435Z,49.57
2018-03-19T08:22:05.590Z,49.66
2018-03-19T08:23:05.733Z,49.66
2018-03-19T08:24:05.875Z,49.66
2018-03-19T08:25:06.017Z,49.59
2018-03-19T08:26:06.164Z,49.49
2018-03-19T08:27:06.312Z,49.49
2018-03-19T08:28:06.461Z,49.49
2018-03-19T08:29:06.607Z,48.93
2018-03-19T08:30:06.751Z,48.36
2018-03-19T08:31:06.899Z,48.55
2018-03-19T08:32:07.044Z,48.55
2018-03-19T08:33:07.192Z,48.18
2018-03-19T08:34:07.335Z,47.80
2018-03-19T08:35:07.485Z,47.42
2018-03-19T08:36:07.658Z,47.51
2018-03-19T08:37:07.776Z,47.23
2018-03-19T08:38:07.922Z,47.42
2018-03-19T08:39:08.070Z,47.61
2018-03-19T08:40:08.466Z,47.44
2018-03-19T08:41:08.371Z,47.16
2018-03-19T08:42:08.520Z,46.97
2018-03-19T08:43:08.665Z,46.31
2018-03-19T08:44:08.809Z,45.83
2018-03-19T08:45:08.960Z,45.64
2018-03-19T08:46:09.107Z,45.45
2018-03-19T08:47:09.250Z,45.45
2018-03-19T08:48:09.399Z,45.43
2018-03-19T08:49:09.555Z,45.90
2018-03-19T08:50:09.692Z,46.09
2018-03-19T08:51:09.840Z,45.93
2018-03-19T08:52:10.268Z,45.62
2018-03-19T08:53:10.139Z,45.81
2018-03-19T08:54:10.282Z,45.72
2018-03-19T08:55:10.430Z,45.43
2018-03-19T08:56:10.575Z,45.62
2018-03-19T08:57:10.723Z,45.90
2018-03-19T08:58:10.880Z,45.90
2018-03-19T08:59:11.022Z,45.72
2018-03-19T09:00:11.182Z,46.21
2018-03-19T09:01:11.315Z,45.74
2018-03-19T09:02:11.464Z,45.64
2018-03-19T09:03:11.609Z,45.27
2018-03-19T09:04:11.758Z,45.08
2018-03-19T09:05:11.923Z,45.45
2018-03-19T09:06:12.039Z,45.36
2018-03-19T09:07:12.214Z,44.98
2018-03-19T09:08:12.330Z,44.51
2018-03-19T09:09:12.480Z,44.23
2018-03-19T09:10:12.626Z,44.68
2018-03-19T09:11:12.770Z,44.87
2018-03-19T09:12:12.927Z,44.96
2018-03-19T09:13:13.066Z,45.43
2018-03-19T09:14:13.212Z,45.36
2018-03-19T09:15:13.361Z,45.55
2018-03-19T09:16:13.511Z,44.70
2018-03-19T09:17:13.657Z,44.60
2018-03-19T09:18:13.816Z,44.02
2018-03-19T09:19:13.955Z,44.77
2018-03-19T09:20:14.097Z,45.06
2018-03-19T09:21:14.244Z,45.72
2018-03-19T09:22:14.393Z,45.72
2018-03-19T09:23:14.542Z,45.81
2018-03-19T09:24:14.681Z,45.72
2018-03-19T09:25:14.861Z,45.90
2018-03-19T09:26:14.980Z,45.62
2018-03-19T09:27:15.128Z,45.72
2018-03-19T09:28:15.273Z,45.62
2018-03-19T09:29:15.419Z,45.62
2018-03-19T09:30:15.569Z,45.72
2018-03-19T09:31:15.750Z,45.90
2018-03-19T09:32:15.863Z,45.83
2018-03-19T09:33:16.035Z,45.43
2018-03-19T09:34:16.194Z,45.72
2018-03-19T09:35:16.335Z,45.64
2018-03-19T09:36:16.476Z,45.64
2018-03-19T09:37:16.628Z,45.62
2018-03-19T09:38:16.774Z,45.74
2018-03-19T09:39:16.923Z,45.74
2018-03-19T09:40:17.081Z,45.36
2018-03-19T09:41:17.220Z,45.36
2018-03-19T09:42:17.370Z,45.45
2018-03-19T09:43:17.518Z,44.70
2018-03-19T09:44:17.667Z,44.60
2018-03-19T09:45:17.810Z,44.79
2018-03-19T09:46:17.966Z,45.53
2018-03-19T09:47:18.104Z,45.34
2018-03-19T09:48:18.323Z,45.81
2018-03-19T09:49:18.401Z,45.90
2018-03-19T09:50:18.556Z,46.09
2018-03-19T09:51:18.696Z,46.09
2018-03-19T09:52:18.844Z,46.00
2018-03-19T09:53:18.998Z,46.28
2018-03-19T09:54:19.141Z,47.04
2018-03-19T09:55:19.294Z,47.13
2018-03-19T09:56:19.688Z,46.94
2018-03-19T09:57:19.586Z,46.75
2018-03-19T09:58:19.730Z,47.06
2018-03-19T09:59:19.967Z,47.06
2018-03-19T10:00:20.025Z,46.69
2018-03-19T10:01:20.177Z,46.09
2018-03-19T10:02:20.337Z,46.28
2018-03-19T10:03:20.458Z,46.66
2018-03-19T10:04:20.614Z,47.13
2018-03-19T10:05:20.755Z,47.04
2018-03-19T10:06:20.901Z,46.94
2018-03-19T10:07:21.050Z,47.13
2018-03-19T10:08:21.195Z,47.32
2018-03-19T10:09:21.342Z,47.13
2018-03-19T10:10:21.496Z,47.04
2018-03-19T10:11:21.637Z,47.13
2018-03-19T10:12:21.784Z,46.85
2018-03-19T10:13:21.935Z,46.94
2018-03-19T10:14:22.078Z,47.13
2018-03-19T10:15:22.276Z,47.63
2018-03-19T10:16:22.369Z,46.94
2018-03-19T10:17:22.518Z,47.13
2018-03-19T10:18:22.662Z,47.32
2018-03-19T10:19:22.811Z,47.80
2018-03-19T10:20:22.954Z,47.61
2018-03-19T10:21:23.118Z,47.99
2018-03-19T10:22:23.251Z,47.80
2018-03-19T10:23:23.399Z,47.80
2018-03-19T10:24:23.528Z,47.61
2018-03-19T10:25:23.677Z,47.42
2018-03-19T10:26:23.819Z,47.61
2018-03-19T10:27:23.968Z,47.72
2018-03-19T10:28:24.118Z,47.32
2018-03-19T10:29:24.269Z,47.42
2018-03-19T10:30:24.419Z,47.42
2018-03-19T10:31:24.554Z,47.72
2018-03-19T10:32:24.702Z,47.72
2018-03-19T10:33:24.906Z,47.34
2018-03-19T10:34:24.993Z,47.53
2018-03-19T10:35:25.144Z,47.63
2018-03-19T10:36:25.284Z,46.97
2018-03-19T10:37:25.427Z,46.97
2018-03-19T10:38:25.579Z,47.16
2018-03-19T10:39:25.720Z,47.16
2018-03-19T10:40:25.871Z,46.97
2018-03-19T10:41:26.018Z,46.97
2018-03-19T10:42:26.160Z,47.34
2018-03-19T10:43:26.300Z,47.06
2018-03-19T10:44:26.533Z,46.31
2018-03-19T10:45:26.588Z,46.40
2018-03-19T10:46:26.734Z,47.06
2018-03-19T10:47:26.882Z,46.97
2018-03-19T10:48:27.017Z,47.16
2018-03-19T10:49:27.153Z,46.69
2018-03-19T10:50:27.300Z,47.44
2018-03-19T10:51:27.447Z,47.53
2018-03-19T10:52:27.603Z,47.25
2018-03-19T10:53:27.757Z,46.97
2018-03-19T10:54:27.896Z,46.88
2018-03-19T10:55:28.046Z,47.34
2018-03-19T10:56:28.196Z,47.16
2018-03-19T10:57:28.344Z,46.88
2018-03-19T10:58:28.493Z,47.44
2018-03-19T10:59:28.641Z,47.63
2018-03-19T11:00:28.786Z,47.34
2018-03-19T11:01:28.934Z,47.53
2018-03-19T11:02:29.093Z,47.53
2018-03-19T11:03:29.228Z,46.97
2018-03-19T11:04:29.383Z,46.88
2018-03-19T11:05:29.523Z,46.97
2018-03-19T11:06:29.680Z,47.16
2018-03-19T11:07:29.820Z,47.06
2018-03-19T11:08:29.974Z,46.69
2018-03-19T11:09:30.127Z,46.97
2018-03-19T11:10:30.269Z,46.99
2018-03-19T11:11:30.416Z,47.18
2018-03-19T11:12:30.565Z,47.16
2018-03-19T11:13:30.700Z,46.97
2018-03-19T11:14:30.848Z,47.06
2018-03-19T11:15:30.989Z,47.16
2018-03-19T11:16:31.128Z,47.53
2018-03-19T11:17:31.280Z,47.37
2018-03-19T11:18:31.426Z,47.66
2018-03-19T11:19:31.566Z,46.99
2018-03-19T11:20:31.773Z,46.99
2018-03-19T11:21:31.861Z,46.52
2018-03-19T11:22:32.006Z,46.90
2018-03-19T11:23:32.154Z,46.99
2018-03-19T11:24:32.302Z,47.18
2018-03-19T11:25:32.449Z,47.28
2018-03-19T11:26:32.610Z,46.90
2018-03-19T11:27:32.764Z,47.18
2018-03-19T11:28:32.924Z,46.90
2018-03-19T11:29:33.061Z,46.71
2018-03-19T11:30:33.209Z,46.90
2018-03-19T11:31:33.349Z,47.18
2018-03-19T11:32:33.498Z,47.18
2018-03-19T11:33:33.891Z,47.28
2018-03-19T11:34:33.795Z,47.18
2018-03-19T11:35:33.939Z,47.18
2018-03-19T11:37:34.233Z,47.09
2018-03-19T11:38:34.373Z,47.09
2018-03-19T11:39:34.548Z,47.09
2018-03-19T11:40:34.664Z,47.66
2018-03-19T11:41:34.809Z,47.37
2018-03-19T11:42:34.956Z,47.18
2018-03-19T11:43:35.104Z,47.28
2018-03-19T11:44:35.261Z,47.56
2018-03-19T11:45:35.402Z,47.47
2018-03-19T11:46:35.561Z,47.56
2018-03-19T11:47:35.713Z,47.28
2018-03-19T11:48:35.854Z,47.18
2018-03-19T11:49:36.011Z,47.18
2018-03-19T11:50:36.156Z,47.09
2018-03-19T11:51:36.296Z,47.09
2018-03-19T11:52:36.449Z,47.18
2018-03-19T11:53:36.593Z,47.09
2018-03-19T11:54:36.738Z,46.80
2018-03-19T11:55:36.885Z,47.37
2018-03-19T11:56:37.038Z,47.56
2018-03-19T11:57:37.183Z,47.18
2018-03-19T11:58:37.334Z,46.90
2018-03-19T11:59:37.478Z,46.99
2018-03-19T12:00:37.639Z,47.18
2018-03-19T12:01:37.780Z,47.37
2018-03-19T12:02:37.923Z,47.18
2018-03-19T12:03:38.076Z,47.37
2018-03-19T12:04:38.217Z,47.28
2018-03-19T12:05:38.370Z,47.18
2018-03-19T12:06:38.521Z,47.18
2018-03-19T12:07:38.662Z,47.47
2018-03-19T12:08:38.809Z,47.56
2018-03-19T12:09:38.943Z,47.47
2018-03-19T12:10:39.109Z,47.18
2018-03-19T12:11:39.255Z,47.28
2018-03-19T12:12:39.402Z,47.66
2018-03-19T12:13:39.549Z,47.75
2018-03-19T12:14:39.711Z,48.22
2018-03-19T12:15:39.847Z,48.41
2018-03-19T12:16:39.994Z,48.25
2018-03-19T12:17:40.144Z,47.49
2018-03-19T12:18:40.287Z,47.77
2018-03-19T12:19:40.435Z,47.28
2018-03-19T12:20:40.583Z,47.20
2018-03-19T12:21:40.732Z,47.39
2018-03-19T12:22:40.878Z,47.09
2018-03-19T12:23:41.031Z,47.28
2018-03-19T12:24:41.169Z,47.87
2018-03-19T12:25:41.318Z,47.68
2018-03-19T12:26:41.493Z,47.49
2018-03-19T12:27:41.642Z,47.68
2018-03-19T12:28:41.795Z,47.58
2018-03-19T12:29:41.941Z,47.11
2018-03-19T12:30:42.082Z,47.02
2018-03-19T12:31:42.240Z,47.11
2018-03-19T12:32:42.390Z,47.39
2018-03-19T12:33:42.527Z,47.02
2018-03-19T12:34:42.925Z,47.20
2018-03-19T12:35:42.807Z,47.11
2018-03-19T12:36:42.961Z,47.30
2018-03-19T12:37:43.117Z,47.11
2018-03-19T12:38:43.258Z,47.02
2018-03-19T12:39:43.408Z,46.92
2018-03-19T12:40:43.568Z,47.02
2018-03-19T12:41:43.696Z,47.30
2018-03-19T12:42:43.845Z,47.68
2018-03-19T12:43:43.998Z,47.77
2018-03-19T12:44:44.141Z,47.39
2018-03-19T12:45:44.290Z,47.49
2018-03-19T12:47:44.581Z,47.11
2018-03-19T12:48:44.728Z,47.11
2018-03-19T12:49:44.889Z,47.02
2018-03-19T12:50:45.034Z,46.83
2018-03-19T12:51:45.192Z,47.30
2018-03-19T12:52:45.338Z,46.17
2018-03-19T12:53:45.482Z,46.26
2018-03-19T12:54:45.629Z,46.83
2018-03-19T12:55:45.778Z,46.92
2018-03-19T12:56:45.928Z,47.20
2018-03-19T12:57:46.070Z,46.92
2018-03-19T12:58:46.226Z,47.02
2018-03-19T12:59:46.365Z,47.02
2018-03-19T13:00:46.519Z,47.20
2018-03-19T13:01:46.673Z,47.02